Time;durP1;ratioP1;P1;durP2;ratioP2;P2;SDS_P1;SDS_P2;PMS_P1;PMS_P2;Temp;Humidity;BMP_temperature;BMP_pressure;BME280_temperature;BME280_humidity;BME280_pressure;Samples;Min_cycle;Max_cycle;Signal;HPM_P1;HPM_P2
2020/12/16 00:01:30;;;;;;;92.75;12.10;;;6.70;99.90;;;;;;4967432;28;20284;-62
2020/12/16 00:03:56;;;;;;;50.70;8.98;;;6.60;99.90;;;;;;4966208;28;20034;-62
2020/12/16 00:06:21;;;;;;;28.05;8.40;;;6.60;99.90;;;;;;4966030;28;20027;-62
2020/12/16 00:08:47;;;;;;;20.23;7.88;;;6.70;99.90;;;;;;4964648;28;20026;-62
2020/12/16 00:11:13;;;;;;;31.20;11.07;;;6.80;99.90;;;;;;4967035;28;20030;-62
2020/12/16 00:13:39;;;;;;;23.52;10.43;;;7.00;99.90;;;;;;4966783;28;20085;-62
2020/12/16 00:16:07;;;;;;;29.90;9.35;;;7.20;99.90;;;;;;4968293;28;20475;-61
2020/12/16 00:18:33;;;;;;;22.23;9.57;;;7.30;99.90;;;;;;4967622;28;20043;-62
2020/12/16 00:20:58;;;;;;;32.33;11.57;;;7.30;99.90;;;;;;4968324;28;20545;-62
2020/12/16 00:23:24;;;;;;;25.17;11.52;;;7.40;99.90;;;;;;4966593;28;20413;-62
2020/12/16 00:25:50;;;;;;;38.95;12.82;;;7.40;99.90;;;;;;4968519;28;20073;-62
2020/12/16 00:28:16;;;;;;;31.08;11.43;;;7.40;99.90;;;;;;4967112;28;20027;-62
2020/12/16 00:30:47;;;;;;;33.83;11.30;;;7.50;99.90;;;;;;4969203;28;20069;-62
2020/12/16 00:33:17;;;;;;;35.95;11.77;;;7.50;99.90;;;;;;4965183;28;20490;-62
2020/12/16 00:35:44;;;;;;;31.17;11.18;;;7.50;99.90;;;;;;4965676;28;20488;-62
2020/12/16 00:38:11;;;;;;;33.30;10.93;;;7.50;99.90;;;;;;4966874;28;20145;-62
2020/12/16 00:40:38;;;;;;;33.78;11.27;;;7.60;99.90;;;;;;4969980;28;20034;-62
2020/12/16 00:43:04;;;;;;;40.75;11.25;;;7.70;99.90;;;;;;4968417;28;20501;-61
2020/12/16 00:45:30;;;;;;;35.13;10.77;;;7.70;99.90;;;;;;4968777;28;20826;-62
2020/12/16 00:47:56;;;;;;;28.48;10.05;;;7.80;99.90;;;;;;4970114;28;20031;-62
2020/12/16 00:50:22;;;;;;;33.13;10.18;;;7.80;99.90;;;;;;4966406;28;20137;-62
2020/12/16 00:52:48;;;;;;;56.25;12.57;;;7.90;99.90;;;;;;4966428;28;20026;-62
2020/12/16 00:55:14;;;;;;;40.00;11.45;;;8.00;99.90;;;;;;4968118;28;20577;-62
2020/12/16 00:57:40;;;;;;;28.02;10.35;;;8.00;99.90;;;;;;4968468;28;20470;-62
2020/12/16 01:00:08;;;;;;;33.28;11.00;;;8.00;99.90;;;;;;4967808;28;20447;-62
2020/12/16 01:02:37;;;;;;;31.92;10.93;;;8.10;99.90;;;;;;4967022;28;20026;-62
2020/12/16 01:05:03;;;;;;;33.37;10.03;;;8.10;99.90;;;;;;4965257;28;20598;-62
2020/12/16 01:07:29;;;;;;;35.17;9.02;;;8.10;99.90;;;;;;4966114;28;20449;-62
2020/12/16 01:09:55;;;;;;;32.83;8.68;;;8.20;99.90;;;;;;4967447;28;20443;-62
2020/12/16 01:12:21;;;;;;;28.15;7.35;;;8.20;99.90;;;;;;4966592;28;20027;-62
2020/12/16 01:14:46;;;;;;;29.77;7.03;;;8.20;99.90;;;;;;4966755;28;20042;-62
2020/12/16 01:17:12;;;;;;;33.35;8.23;;;8.20;99.90;;;;;;4965532;28;20035;-62
2020/12/16 01:19:38;;;;;;;25.25;6.75;;;8.30;99.90;;;;;;4965593;28;20554;-62
2020/12/16 01:22:04;;;;;;;32.70;7.78;;;8.30;99.90;;;;;;4965709;28;20041;-62
2020/12/16 01:24:30;;;;;;;24.40;5.45;;;8.30;99.90;;;;;;4965814;28;20915;-62
2020/12/16 01:26:55;;;;;;;25.05;6.05;;;8.30;99.90;;;;;;4966408;28;20525;-62
2020/12/16 01:29:21;;;;;;;27.60;5.45;;;8.30;99.90;;;;;;4966148;28;20058;-62
2020/12/16 01:31:49;;;;;;;28.25;5.10;;;8.30;99.90;;;;;;4966789;28;20477;-62
2020/12/16 01:34:19;;;;;;;28.58;6.00;;;8.30;99.90;;;;;;4963841;28;20401;-62
2020/12/16 01:36:49;;;;;;;30.08;5.55;;;8.30;99.90;;;;;;4965806;28;20034;-62
2020/12/16 01:39:16;;;;;;;30.45;5.53;;;8.30;99.90;;;;;;4965022;28;20043;-62
2020/12/16 01:41:47;;;;;;;25.73;4.90;;;8.20;99.90;;;;;;4966444;28;20875;-62
2020/12/16 01:44:18;;;;;;;27.20;5.30;;;8.20;99.90;;;;;;4965197;28;20125;-62
2020/12/16 01:46:54;;;;;;;23.63;4.60;;;8.20;99.90;;;;;;4963871;28;20047;-62
2020/12/16 01:49:21;;;;;;;22.30;4.50;;;8.00;99.90;;;;;;4998389;28;20121;-62
2020/12/16 01:51:55;;;;;;;26.13;5.18;;;8.10;99.90;;;;;;4967254;28;20142;-62
2020/12/16 01:54:24;;;;;;;23.20;4.78;;;8.00;99.90;;;;;;4965277;28;20046;-62
2020/12/16 01:56:53;;;;;;;27.10;6.72;;;7.90;99.90;;;;;;4965164;28;20537;-62
2020/12/16 01:59:20;;;;;;;28.67;6.45;;;7.70;99.90;;;;;;4966787;28;20034;-62
2020/12/16 02:01:50;;;;;;;29.38;7.10;;;7.80;99.90;;;;;;4966414;28;20030;-62
2020/12/16 02:04:20;;;;;;;24.50;6.95;;;7.60;99.90;;;;;;4965181;28;20061;-62
2020/12/16 02:06:48;;;;;;;25.55;7.07;;;7.50;99.90;;;;;;4964913;28;20026;-62
2020/12/16 02:09:14;;;;;;;24.95;7.75;;;7.40;99.90;;;;;;4966214;28;20049;-62
2020/12/16 02:11:40;;;;;;;27.08;7.57;;;7.30;99.90;;;;;;4965670;28;20027;-62
2020/12/16 02:14:08;;;;;;;26.88;6.93;;;7.30;99.90;;;;;;4963822;28;20042;-62
2020/12/16 02:16:35;;;;;;;25.85;7.13;;;7.30;99.90;;;;;;4967964;28;20038;-62
2020/12/16 02:19:05;;;;;;;27.70;5.53;;;7.30;99.90;;;;;;4964708;28;20042;-62
2020/12/16 02:21:32;;;;;;;18.92;6.45;;;7.30;99.90;;;;;;4967649;28;20053;-62
2020/12/16 02:24:07;;;;;;;16.63;5.80;;;7.20;99.90;;;;;;4963711;28;20463;-62
2020/12/16 02:26:35;;;;;;;23.80;5.82;;;7.20;99.90;;;;;;4965333;28;20077;-62
2020/12/16 02:29:01;;;;;;;29.20;5.72;;;7.20;99.90;;;;;;4964140;28;20049;-62
2020/12/16 02:31:29;;;;;;;24.55;6.32;;;7.30;99.90;;;;;;4967061;28;20478;-62
2020/12/16 02:33:55;;;;;;;26.33;6.22;;;7.30;99.90;;;;;;4965711;28;20503;-62
2020/12/16 02:36:21;;;;;;;38.58;7.97;;;7.20;99.90;;;;;;4966996;28;20030;-62
2020/12/16 02:38:48;;;;;;;25.40;5.68;;;7.30;99.90;;;;;;4964841;28;20553;-62
2020/12/16 02:41:14;;;;;;;25.23;6.63;;;7.30;99.90;;;;;;4967775;28;20026;-62
2020/12/16 02:43:40;;;;;;;33.78;5.97;;;7.30;99.90;;;;;;4969197;28;20043;-62
2020/12/16 02:46:06;;;;;;;19.10;5.20;;;7.50;99.90;;;;;;4966933;28;20026;-62
2020/12/16 02:48:32;;;;;;;31.40;5.68;;;7.50;99.90;;;;;;4970482;28;20034;-62
2020/12/16 02:50:58;;;;;;;28.17;6.18;;;7.60;99.90;;;;;;4970096;28;20451;-62
2020/12/16 02:53:24;;;;;;;17.85;5.80;;;7.60;99.90;;;;;;4967060;28;20109;-62
2020/12/16 02:55:50;;;;;;;25.08;5.82;;;7.60;99.90;;;;;;4969161;28;20138;-62
2020/12/16 02:58:16;;;;;;;21.15;5.20;;;7.60;99.90;;;;;;4970585;28;20038;-62
2020/12/16 03:00:42;;;;;;;19.23;5.43;;;7.60;99.90;;;;;;4969537;28;20058;-62
2020/12/16 03:03:07;;;;;;;24.83;5.43;;;7.60;99.90;;;;;;4967464;28;20054;-62
2020/12/16 03:05:33;;;;;;;28.58;5.93;;;7.60;99.90;;;;;;4969960;28;20345;-62
2020/12/16 03:07:59;;;;;;;24.92;6.55;;;7.50;99.90;;;;;;4970237;28;20035;-62
2020/12/16 03:10:25;;;;;;;25.73;5.47;;;7.40;99.90;;;;;;4970560;28;20105;-62
2020/12/16 03:12:50;;;;;;;27.80;6.35;;;7.50;99.90;;;;;;4967507;28;20123;-62
2020/12/16 03:15:16;;;;;;;26.83;6.32;;;7.40;99.90;;;;;;4966207;28;20634;-62
2020/12/16 03:17:42;;;;;;;38.05;7.35;;;7.40;99.90;;;;;;4970026;28;20496;-62
2020/12/16 03:20:08;;;;;;;26.02;6.68;;;7.40;99.90;;;;;;4971205;28;20563;-62
2020/12/16 03:22:33;;;;;;;40.10;7.65;;;7.40;99.90;;;;;;4966340;28;20111;-62
2020/12/16 03:24:59;;;;;;;27.17;6.88;;;7.40;99.90;;;;;;4969024;28;20132;-62
2020/12/16 03:27:25;;;;;;;21.10;6.35;;;7.40;99.90;;;;;;4969969;28;20034;-62
2020/12/16 03:29:51;;;;;;;32.05;7.80;;;7.40;99.90;;;;;;4965462;28;20038;-62
2020/12/16 03:32:16;;;;;;;35.20;7.28;;;7.30;99.90;;;;;;4968836;28;20463;-62
2020/12/16 03:34:42;;;;;;;30.50;6.78;;;7.40;99.90;;;;;;4967762;28;20049;-62
2020/12/16 03:37:08;;;;;;;25.65;6.50;;;7.30;99.90;;;;;;4968321;28;20037;-62
2020/12/16 03:39:34;;;;;;;26.92;6.50;;;7.30;99.90;;;;;;4967170;28;20035;-62
2020/12/16 03:42:00;;;;;;;21.50;6.32;;;7.30;99.90;;;;;;4967812;28;20035;-62
2020/12/16 03:44:26;;;;;;;23.00;6.60;;;7.30;99.90;;;;;;4966675;28;20868;-62
2020/12/16 03:46:52;;;;;;;25.58;7.38;;;7.40;99.90;;;;;;4969757;28;20399;-62
2020/12/16 03:49:18;;;;;;;20.73;6.90;;;7.30;99.90;;;;;;4968649;28;20027;-62
2020/12/16 03:51:50;;;;;;;33.42;8.65;;;7.30;99.90;;;;;;4967959;28;20037;-61
2020/12/16 03:54:16;;;;;;;28.27;6.80;;;7.30;99.90;;;;;;4967424;28;20066;-62
2020/12/16 03:56:41;;;;;;;35.17;7.35;;;7.30;99.90;;;;;;4967056;28;20479;-62
2020/12/16 03:59:07;;;;;;;27.40;7.03;;;7.30;99.90;;;;;;4967309;28;20552;-62
2020/12/16 04:01:33;;;;;;;31.50;6.38;;;7.30;99.90;;;;;;4966960;28;20038;-62
2020/12/16 04:04:02;;;;;;;27.27;6.45;;;7.30;99.90;;;;;;4964216;28;20085;-62
2020/12/16 04:06:27;;;;;;;25.02;7.80;;;7.30;99.90;;;;;;4969075;28;20037;-62
2020/12/16 04:08:54;;;;;;;32.35;6.95;;;7.30;99.90;;;;;;4969387;28;20402;-62
2020/12/16 04:11:20;;;;;;;26.75;6.65;;;7.30;99.90;;;;;;4965282;28;20026;-62
2020/12/16 04:13:46;;;;;;;34.88;6.82;;;7.30;99.90;;;;;;4961094;28;20043;-62
2020/12/16 04:16:16;;;;;;;33.67;7.18;;;7.40;99.90;;;;;;4968099;28;20037;-62
2020/12/16 04:18:42;;;;;;;;;;;7.30;99.90;;;;;;4967019;28;20038;-62
2020/12/16 04:21:09;;;;;;;24.65;6.70;;;7.30;99.90;;;;;;4966784;28;20448;-62
2020/12/16 04:23:36;;;;;;;24.85;8.63;;;7.30;99.90;;;;;;4967179;28;20100;-62
2020/12/16 04:26:03;;;;;;;25.77;7.25;;;7.20;99.90;;;;;;4968812;28;20445;-62
2020/12/16 04:28:29;;;;;;;33.00;8.68;;;7.30;99.90;;;;;;4967022;28;20105;-62
2020/12/16 04:30:55;;;;;;;31.25;7.43;;;7.20;99.90;;;;;;4967966;28;20549;-62
2020/12/16 04:33:21;;;;;;;26.58;7.75;;;7.30;99.90;;;;;;4964299;28;21621;-62
2020/12/16 04:35:47;;;;;;;30.00;7.38;;;7.30;99.90;;;;;;4969429;28;20042;-63
2020/12/16 04:38:13;;;;;;;23.10;7.38;;;7.20;99.90;;;;;;4966474;28;20054;-62
2020/12/16 04:40:40;;;;;;;26.85;6.40;;;7.20;99.90;;;;;;4966852;28;20034;-62
2020/12/16 04:43:11;;;;;;;33.28;7.43;;;7.20;99.90;;;;;;4964979;28;20031;-62
2020/12/16 04:45:40;;;;;;;20.13;5.90;;;7.30;99.90;;;;;;4966656;28;20023;-62
2020/12/16 04:48:07;;;;;;;24.67;7.30;;;7.20;99.90;;;;;;4964274;28;20039;-62
2020/12/16 04:50:34;;;;;;;35.50;7.55;;;7.20;99.90;;;;;;4965892;28;20042;-62
2020/12/16 04:53:02;;;;;;;29.73;7.68;;;7.20;99.90;;;;;;4964738;28;20035;-62
2020/12/16 04:55:29;;;;;;;28.63;7.75;;;7.10;99.90;;;;;;4969358;28;20031;-62
2020/12/16 04:57:55;;;;;;;31.02;7.32;;;7.10;99.90;;;;;;4965573;28;20053;-62
2020/12/16 05:00:24;;;;;;;39.33;8.25;;;7.10;99.90;;;;;;4965675;28;20055;-62
2020/12/16 05:02:58;;;;;;;24.70;8.47;;;7.10;99.90;;;;;;4956407;28;20065;-62
2020/12/16 05:05:24;;;;;;;25.95;7.05;;;7.00;99.90;;;;;;4967765;28;21031;-61
2020/12/16 05:07:50;;;;;;;27.30;7.05;;;7.00;99.90;;;;;;4965918;28;20117;-61
2020/12/16 05:10:29;;;;;;;33.10;8.18;;;7.00;99.90;;;;;;4964824;28;20589;-62
2020/12/16 05:13:06;;;;;;;27.58;6.57;;;6.90;99.90;;;;;;4959714;28;20034;-63
2020/12/16 05:15:33;;;;;;;27.73;7.68;;;6.90;99.90;;;;;;4994365;28;20038;-69
2020/12/16 05:18:16;;;;;;;26.33;7.80;;;7.00;99.90;;;;;;4950723;28;20049;-69
2020/12/16 05:20:45;;;;;;;22.02;7.38;;;7.00;99.90;;;;;;4960967;28;20088;-69
2020/12/16 05:23:11;;;;;;;25.30;8.00;;;7.00;99.90;;;;;;4963384;28;20569;-69
2020/12/16 05:25:38;;;;;;;29.88;8.93;;;7.00;99.90;;;;;;4962104;28;20395;-69
2020/12/16 05:28:05;;;;;;;28.55;7.82;;;7.00;99.90;;;;;;4957757;28;20040;-69
2020/12/16 05:30:33;;;;;;;32.78;9.52;;;7.00;99.90;;;;;;4960698;28;20035;-69
2020/12/16 05:33:02;;;;;;;27.95;8.88;;;7.00;99.90;;;;;;4961495;28;20142;-69
2020/12/16 05:35:31;;;;;;;26.10;8.73;;;7.00;99.90;;;;;;4959947;28;20041;-69
2020/12/16 05:38:01;;;;;;;39.80;8.23;;;7.00;99.90;;;;;;4961571;28;20063;-69
2020/12/16 05:40:28;;;;;;;25.25;8.48;;;7.00;99.90;;;;;;4963896;28;20081;-69
2020/12/16 05:42:54;;;;;;;35.22;9.95;;;7.00;99.90;;;;;;4963911;28;20045;-69
2020/12/16 05:45:22;;;;;;;33.00;9.25;;;7.00;99.90;;;;;;4961883;28;20936;-69
2020/12/16 05:48:06;;;;;;;37.72;10.40;;;7.00;99.90;;;;;;4964025;28;20557;-69
2020/12/16 05:50:33;;;;;;;33.13;8.77;;;6.90;99.90;;;;;;4961840;28;20113;-69
2020/12/16 05:53:12;;;;;;;30.05;8.82;;;6.90;99.90;;;;;;4953481;28;20029;-69
2020/12/16 05:55:38;;;;;;;26.05;8.23;;;6.80;99.90;;;;;;4961787;28;20042;-69
2020/12/16 05:58:12;;;;;;;25.75;8.00;;;6.80;99.90;;;;;;4962154;28;20505;-69
2020/12/16 06:00:51;;;;;;;31.63;9.93;;;6.80;99.90;;;;;;4960703;28;20026;-69
2020/12/16 06:03:29;;;;;;;31.25;10.02;;;6.70;99.90;;;;;;4957975;28;20733;-69
2020/12/16 06:06:04;;;;;;;26.63;9.18;;;6.70;99.90;;;;;;4962725;28;20054;-69
2020/12/16 06:08:51;;;;;;;32.72;9.73;;;6.60;99.90;;;;;;4956358;28;20085;-69
2020/12/16 06:11:17;;;;;;;36.95;9.23;;;6.60;99.90;;;;;;4963415;28;20138;-69
2020/12/16 06:13:46;;;;;;;28.02;9.15;;;6.50;99.90;;;;;;4962205;28;20089;-69
2020/12/16 06:16:12;;;;;;;31.10;8.77;;;6.50;99.90;;;;;;4962362;28;20747;-69
2020/12/16 06:18:45;;;;;;;34.10;8.82;;;6.50;99.90;;;;;;4961774;28;20528;-69
2020/12/16 06:21:13;;;;;;;31.10;8.98;;;6.50;99.90;;;;;;4966823;28;20030;-69
2020/12/16 06:23:43;;;;;;;27.45;8.65;;;6.50;99.90;;;;;;4965510;28;20398;-69
2020/12/16 06:26:10;;;;;;;30.50;9.38;;;6.50;99.90;;;;;;4965976;28;20405;-69
2020/12/16 06:28:36;;;;;;;32.63;10.38;;;6.50;99.90;;;;;;4965270;28;20023;-69
2020/12/16 06:31:14;;;;;;;29.48;8.88;;;6.50;99.90;;;;;;4967235;28;20034;-69
2020/12/16 06:33:59;;;;;;;25.13;10.00;;;6.50;99.90;;;;;;4964196;28;20042;-68
2020/12/16 06:36:32;;;;;;;33.92;10.05;;;6.50;99.90;;;;;;4978256;28;20038;-68
2020/12/16 06:38:59;;;;;;;34.38;9.40;;;6.50;99.90;;;;;;4966713;28;20125;-69
2020/12/16 06:41:29;;;;;;;34.03;10.38;;;6.40;99.90;;;;;;4967580;28;20090;-69
2020/12/16 06:43:57;;;;;;;31.73;9.38;;;6.40;99.90;;;;;;4966523;28;20034;-68
2020/12/16 06:46:32;;;;;;;24.80;9.40;;;6.40;99.90;;;;;;4967686;28;20049;-68
2020/12/16 06:49:06;;;;;;;33.78;10.43;;;6.40;99.90;;;;;;4967708;28;20121;-69
2020/12/16 06:51:44;;;;;;;20.38;9.85;;;6.40;99.90;;;;;;4968381;28;20018;-68
2020/12/16 06:54:13;;;;;;;31.23;10.30;;;6.30;99.90;;;;;;4966844;28;20049;-69
2020/12/16 06:56:48;;;;;;;28.03;9.40;;;6.30;99.90;;;;;;4966733;28;20061;-68
2020/12/16 06:59:15;;;;;;;31.17;9.95;;;6.30;99.90;;;;;;4968075;28;20482;-68
2020/12/16 07:01:41;;;;;;;30.65;10.10;;;6.30;99.90;;;;;;4967846;28;20035;-68
2020/12/16 07:04:12;;;;;;;32.58;12.43;;;6.30;99.90;;;;;;4965167;28;20439;-68
2020/12/16 07:06:40;;;;;;;43.58;11.80;;;6.30;99.90;;;;;;4965955;28;20817;-68
2020/12/16 07:09:18;;;;;;;23.30;10.95;;;6.30;99.90;;;;;;4967517;28;20657;-68
2020/12/16 07:11:52;;;;;;;26.55;11.27;;;6.40;99.90;;;;;;4966474;28;20567;-68
2020/12/16 07:14:25;;;;;;;34.03;11.80;;;6.40;99.90;;;;;;4966788;28;20105;-69
2020/12/16 07:16:51;;;;;;;29.65;12.02;;;6.30;99.90;;;;;;4965481;28;20101;-68
2020/12/16 07:19:27;;;;;;;26.00;11.23;;;6.30;99.90;;;;;;4965367;28;20039;-68
2020/12/16 07:21:54;;;;;;;27.92;11.88;;;6.30;99.90;;;;;;4967779;28;20038;-69
2020/12/16 07:24:22;;;;;;;32.42;12.60;;;6.40;99.90;;;;;;4965954;28;20118;-69
2020/12/16 07:26:56;;;;;;;35.83;11.60;;;6.40;99.90;;;;;;4970097;28;20034;-68
2020/12/16 07:29:32;;;;;;;33.53;12.57;;;6.50;99.90;;;;;;4971536;28;20022;-69
2020/12/16 07:32:14;;;;;;;35.53;12.75;;;6.50;99.90;;;;;;4971175;28;20140;-69
2020/12/16 07:34:47;;;;;;;33.88;12.57;;;6.60;99.90;;;;;;4969075;28;20046;-69
2020/12/16 07:37:15;;;;;;;42.03;14.38;;;6.60;99.90;;;;;;4970676;28;20153;-68
2020/12/16 07:39:51;;;;;;;35.05;13.70;;;6.60;99.90;;;;;;4970819;28;20038;-68
2020/12/16 07:42:23;;;;;;;32.05;13.75;;;6.60;99.90;;;;;;4970484;28;20124;-68
2020/12/16 07:44:49;;;;;;;36.13;12.98;;;6.70;99.90;;;;;;4969778;28;20042;-68
2020/12/16 07:47:16;;;;;;;38.15;12.25;;;6.70;99.90;;;;;;4969169;28;20030;-69
2020/12/16 07:49:43;;;;;;;41.92;14.10;;;6.70;99.90;;;;;;4970847;28;20026;-69
2020/12/16 07:52:09;;;;;;;33.97;13.40;;;6.80;99.90;;;;;;4971259;28;20561;-68
2020/12/16 07:54:35;;;;;;;41.58;14.20;;;6.90;99.90;;;;;;4969567;28;20479;-68
2020/12/16 07:57:02;;;;;;;30.70;13.85;;;6.90;99.90;;;;;;4971615;28;20026;-68
2020/12/16 07:59:34;;;;;;;45.72;14.90;;;7.00;99.90;;;;;;4970622;28;20398;-69
2020/12/16 08:02:19;;;;;;;36.95;14.82;;;7.10;99.90;;;;;;4970162;28;20054;-68
2020/12/16 08:04:57;;;;;;;40.83;13.57;;;7.20;99.90;;;;;;4966733;28;20509;-69
2020/12/16 08:07:23;;;;;;;39.60;13.52;;;7.20;99.90;;;;;;4970696;28;20435;-69
2020/12/16 08:10:02;;;;;;;37.08;14.07;;;7.30;99.90;;;;;;4968838;28;20038;-68
2020/12/16 08:12:31;;;;;;;32.35;13.00;;;7.30;99.90;;;;;;4968411;28;20026;-68
2020/12/16 08:15:23;;;;;;;38.05;13.98;;;7.40;99.90;;;;;;4968758;28;20141;-68
2020/12/16 08:17:51;;;;;;;29.42;12.85;;;7.40;99.90;;;;;;4969369;28;20039;-69
2020/12/16 08:20:23;;;;;;;31.58;13.80;;;7.50;99.90;;;;;;4967936;28;20419;-68
2020/12/16 08:22:55;;;;;;;37.80;14.25;;;7.50;99.90;;;;;;4969511;28;20034;-68
2020/12/16 08:25:22;;;;;;;30.80;12.80;;;7.50;99.90;;;;;;4969562;28;20034;-69
2020/12/16 08:27:51;;;;;;;43.42;14.70;;;7.50;99.90;;;;;;4970585;28;20505;-68
2020/12/16 08:30:19;;;;;;;37.33;14.07;;;7.50;99.90;;;;;;4970261;28;20241;-69
2020/12/16 08:36:26;;;;;;;33.38;13.25;;;7.60;99.90;;;;;;4968915;28;20525;-69
2020/12/16 08:38:53;;;;;;;33.05;13.75;;;7.70;99.90;;;;;;4965163;28;20392;-69
2020/12/16 08:41:27;;;;;;;36.28;14.30;;;7.80;99.90;;;;;;4969267;28;20066;-69
2020/12/16 08:43:54;;;;;;;35.13;14.02;;;7.80;99.90;;;;;;4950266;28;20032;-69
2020/12/16 08:46:25;;;;;;;35.50;14.07;;;7.90;99.90;;;;;;4970044;28;20023;-69
2020/12/16 08:49:01;;;;;;;35.33;13.57;;;7.90;99.90;;;;;;4967385;28;20349;-69
2020/12/16 08:51:41;;;;;;;35.25;13.98;;;7.90;99.90;;;;;;4968456;28;20093;-69
2020/12/16 08:54:16;;;;;;;41.72;14.98;;;8.00;99.90;;;;;;4968874;28;20030;-69
2020/12/16 08:56:50;;;;;;;28.67;13.27;;;8.00;99.90;;;;;;4969688;28;20788;-69
2020/12/16 09:03:09;;;;;;;40.85;14.30;;;8.10;99.90;;;;;;4968991;28;20124;-69
2020/12/16 09:05:38;;;;;;;40.00;15.55;;;8.10;99.90;;;;;;4969050;28;20104;-69
2020/12/16 09:08:15;;;;;;;40.85;12.60;;;8.10;99.90;;;;;;4969311;28;20026;-69
2020/12/16 09:10:43;;;;;;;46.65;14.10;;;8.10;99.90;;;;;;4969892;28;20376;-69
2020/12/16 09:13:15;;;;;;;41.25;14.77;;;8.10;99.90;;;;;;4957506;28;20726;-69
2020/12/16 09:15:47;;;;;;;34.45;15.20;;;8.10;99.90;;;;;;4964545;28;20677;-69
2020/12/16 09:18:12;;;;;;;32.50;14.48;;;8.20;99.90;;;;;;4961712;28;20031;-69
2020/12/16 09:20:39;;;;;;;41.08;13.93;;;8.20;99.90;;;;;;4961028;28;20069;-69
2020/12/16 09:23:05;;;;;;;28.45;13.80;;;8.20;99.90;;;;;;4965347;28;20718;-69
2020/12/16 09:25:31;;;;;;;37.60;13.57;;;8.20;99.90;;;;;;4968259;28;20043;-69
2020/12/16 09:28:02;;;;;;;32.28;14.90;;;8.20;99.90;;;;;;4963756;28;20038;-69
2020/12/16 09:30:33;;;;;;;41.80;14.65;;;8.20;99.90;;;;;;4967348;28;20086;-69
2020/12/16 09:33:16;;;;;;;38.70;14.73;;;8.20;99.90;;;;;;4966065;28;20141;-69
2020/12/16 09:35:43;;;;;;;28.30;12.40;;;8.30;99.90;;;;;;4967088;28;20486;-69
2020/12/16 09:38:19;;;;;;;40.63;13.98;;;8.30;99.90;;;;;;4968689;28;20347;-69
2020/12/16 09:40:47;;;;;;;28.83;12.57;;;8.30;99.90;;;;;;4980283;28;20038;-69
2020/12/16 09:43:14;;;;;;;30.83;11.77;;;8.40;99.90;;;;;;4965473;28;20481;-69
2020/12/16 09:45:40;;;;;;;28.83;13.85;;;8.40;99.90;;;;;;4968123;28;20880;-69
2020/12/16 09:48:07;;;;;;;34.28;13.70;;;8.40;99.90;;;;;;4967010;28;20361;-69
2020/12/16 09:50:37;;;;;;;31.23;11.73;;;8.40;99.90;;;;;;4966991;28;20034;-69
2020/12/16 09:53:05;;;;;;;26.15;11.80;;;8.40;99.90;;;;;;4968076;28;20430;-69
2020/12/16 09:55:37;;;;;;;29.40;12.23;;;8.40;99.90;;;;;;4982852;28;20101;-69
2020/12/16 09:58:09;;;;;;;28.70;12.00;;;8.40;99.90;;;;;;4967863;28;20354;-69
2020/12/16 10:00:36;;;;;;;25.35;13.48;;;8.40;99.90;;;;;;4967580;28;20427;-69
2020/12/16 10:03:07;;;;;;;43.70;14.48;;;8.40;99.90;;;;;;4962602;28;20050;-69
2020/12/16 10:05:34;;;;;;;36.33;14.57;;;8.40;99.90;;;;;;4968948;28;20132;-69
2020/12/16 10:08:00;;;;;;;29.45;14.02;;;8.40;99.90;;;;;;4967617;28;20544;-69
2020/12/16 10:10:27;;;;;;;34.60;14.88;;;8.50;99.90;;;;;;4966248;28;20034;-69
2020/12/16 10:12:53;;;;;;;35.22;15.60;;;8.50;99.90;;;;;;4968195;28;20035;-69
2020/12/16 10:15:20;;;;;;;39.15;16.55;;;8.50;99.90;;;;;;4967254;28;20035;-69
2020/12/16 10:17:45;;;;;;;39.33;16.52;;;8.60;99.90;;;;;;4948220;28;20030;-69
2020/12/16 10:20:11;;;;;;;40.63;18.15;;;8.60;99.90;;;;;;4967774;28;20425;-69
2020/12/16 10:22:40;;;;;;;36.03;16.83;;;8.50;99.90;;;;;;4968131;28;20031;-69
2020/12/16 10:25:06;;;;;;;38.35;17.40;;;8.60;99.90;;;;;;4965592;28;20026;-69
2020/12/16 10:27:32;;;;;;;42.30;18.23;;;8.60;99.90;;;;;;4968391;28;20022;-70
2020/12/16 10:30:03;;;;;;;48.08;18.95;;;8.60;99.90;;;;;;4966960;28;20388;-69
2020/12/16 10:32:29;;;;;;;44.45;19.67;;;8.60;99.90;;;;;;4966854;28;20374;-69
2020/12/16 10:34:55;;;;;;;34.97;16.98;;;8.60;99.90;;;;;;4967118;28;20062;-69
2020/12/16 10:37:23;;;;;;;41.22;18.00;;;8.60;99.90;;;;;;4967112;28;20363;-69
2020/12/16 10:39:49;;;;;;;37.95;18.33;;;8.70;99.90;;;;;;4967434;28;20030;-69
2020/12/16 10:42:15;;;;;;;45.25;18.13;;;8.70;99.90;;;;;;4967818;28;20479;-69
2020/12/16 10:44:41;;;;;;;37.83;18.88;;;8.70;99.90;;;;;;4965781;28;20034;-70
2020/12/16 10:47:07;;;;;;;45.80;21.50;;;8.70;99.90;;;;;;4967405;28;20087;-69
2020/12/16 10:49:34;;;;;;;55.97;25.23;;;8.70;99.90;;;;;;4965804;28;20042;-69
2020/12/16 10:52:08;;;;;;;59.22;23.80;;;8.60;99.90;;;;;;4967677;28;20027;-69
2020/12/16 10:54:34;;;;;;;48.55;24.15;;;8.60;99.90;;;;;;4967049;28;20053;-69
2020/12/16 10:57:01;;;;;;;58.67;24.98;;;8.60;99.90;;;;;;4966726;28;20042;-69
2020/12/16 10:59:29;;;;;;;66.30;27.27;;;8.60;99.90;;;;;;4962691;28;20042;-69
2020/12/16 11:01:59;;;;;;;58.10;28.35;;;8.60;99.90;;;;;;4968504;28;20450;-69
2020/12/16 11:04:29;;;;;;;79.60;29.25;;;8.60;99.90;;;;;;4968707;28;20118;-69
2020/12/16 11:06:55;;;;;;;78.70;29.50;;;8.50;99.90;;;;;;4971718;28;20486;-69
2020/12/16 11:09:21;;;;;;;76.07;31.95;;;8.40;99.90;;;;;;4971858;28;20027;-69
2020/12/16 11:11:49;;;;;;;89.93;32.78;;;8.40;99.90;;;;;;4968753;28;20445;-69
2020/12/16 11:14:16;;;;;;;86.43;30.88;;;8.30;99.90;;;;;;4968769;28;20080;-70
2020/12/16 11:16:42;;;;;;;79.72;29.20;;;8.20;99.90;;;;;;4969791;28;20065;-69
2020/12/16 11:19:10;;;;;;;77.68;29.52;;;8.00;99.90;;;;;;4970418;28;20148;-69
2020/12/16 11:21:49;;;;;;;82.90;28.52;;;7.90;99.90;;;;;;4969265;28;20027;-69
2020/12/16 11:24:17;;;;;;;73.15;29.92;;;7.80;99.90;;;;;;4967529;28;20038;-69
2020/12/16 11:26:46;;;;;;;89.80;31.40;;;7.80;99.90;;;;;;4969891;28;20632;-69
2020/12/16 11:29:13;;;;;;;86.05;28.42;;;7.80;99.90;;;;;;4971584;28;20061;-69
2020/12/16 11:31:44;;;;;;;82.57;29.75;;;7.70;99.90;;;;;;4971054;28;20030;-69
2020/12/16 11:34:11;;;;;;;87.78;30.80;;;7.70;99.90;;;;;;4968686;28;20600;-69
2020/12/16 11:36:42;;;;;;;89.10;31.88;;;7.70;99.90;;;;;;4969446;28;20038;-69
2020/12/16 11:39:09;;;;;;;94.15;32.10;;;7.70;99.90;;;;;;4970260;28;20074;-69
2020/12/16 11:41:36;;;;;;;103.68;33.53;;;7.70;99.90;;;;;;4971129;28;20037;-69
2020/12/16 11:44:03;;;;;;;96.97;33.33;;;7.70;99.90;;;;;;4970311;28;20161;-69
2020/12/16 11:46:30;;;;;;;89.22;32.88;;;7.70;99.90;;;;;;4970028;28;20084;-69
2020/12/16 11:48:59;;;;;;;99.60;35.05;;;7.80;99.90;;;;;;4971346;28;20564;-69
2020/12/16 11:51:26;;;;;;;93.65;35.75;;;7.70;99.90;;;;;;4970537;28;20034;-69
2020/12/16 11:53:52;;;;;;;87.20;34.90;;;7.80;99.90;;;;;;4969124;28;20584;-69
2020/12/16 11:56:18;;;;;;;101.07;35.40;;;7.80;99.90;;;;;;4970125;28;20281;-69
2020/12/16 11:58:45;;;;;;;108.65;37.42;;;7.80;99.90;;;;;;4970693;28;20033;-69
2020/12/16 12:01:12;;;;;;;103.93;39.17;;;7.80;99.90;;;;;;4970452;28;20470;-69
2020/12/16 12:03:38;;;;;;;92.43;34.70;;;7.80;99.90;;;;;;4966232;28;20133;-69
2020/12/16 12:06:09;;;;;;;91.60;35.47;;;7.80;99.90;;;;;;4970267;28;20061;-69
2020/12/16 12:08:35;;;;;;;93.57;35.50;;;7.80;99.90;;;;;;4971094;28;20405;-69
2020/12/16 12:11:01;;;;;;;94.05;33.92;;;7.80;99.90;;;;;;4969652;28;20460;-69
2020/12/16 12:13:27;;;;;;;81.72;32.83;;;7.80;99.90;;;;;;4967942;28;20039;-69
2020/12/16 12:15:54;;;;;;;97.70;34.88;;;7.80;99.90;;;;;;4971048;28;20518;-69
2020/12/16 12:18:20;;;;;;;87.63;32.80;;;7.80;99.90;;;;;;4969436;28;20085;-69
2020/12/16 12:20:45;;;;;;;81.30;32.85;;;7.90;99.90;;;;;;4970584;28;20042;-69
2020/12/16 12:23:11;;;;;;;71.65;28.98;;;7.90;99.90;;;;;;4966838;28;20051;-69
2020/12/16 12:25:37;;;;;;;81.93;28.30;;;7.90;99.90;;;;;;4969875;28;20118;-69
2020/12/16 12:28:03;;;;;;;61.10;26.50;;;7.90;99.90;;;;;;4970230;28;20605;-69
2020/12/16 12:30:29;;;;;;;60.95;26.83;;;7.90;99.90;;;;;;4968279;28;20104;-69
2020/12/16 12:32:55;;;;;;;61.55;25.98;;;7.90;99.90;;;;;;4967908;28;20035;-69
2020/12/16 12:35:21;;;;;;;58.55;25.85;;;7.90;99.90;;;;;;4970432;28;20445;-69
2020/12/16 12:37:47;;;;;;;70.50;27.45;;;7.90;99.90;;;;;;4969373;28;20053;-69
2020/12/16 12:40:12;;;;;;;69.53;27.95;;;7.90;99.90;;;;;;4969699;28;20445;-69
2020/12/16 12:42:38;;;;;;;57.35;23.48;;;7.90;99.90;;;;;;4968728;28;20585;-69
2020/12/16 12:45:05;;;;;;;55.10;23.08;;;7.90;99.90;;;;;;4967039;28;20303;-69
2020/12/16 12:47:31;;;;;;;52.92;22.50;;;7.80;99.90;;;;;;4969456;28;20031;-69
2020/12/16 12:49:57;;;;;;;53.08;22.52;;;7.60;99.90;;;;;;4970344;28;20037;-69
2020/12/16 12:52:22;;;;;;;64.15;24.02;;;7.60;99.90;;;;;;4969074;28;20077;-69
2020/12/16 12:54:48;;;;;;;59.00;23.10;;;7.60;99.90;;;;;;4967708;28;20114;-69